createdAt,value
2023-05-20T00:02:05.931Z,100538.56
2023-05-20T00:07:08.622Z,100535.06
2023-05-20T00:12:11.345Z,100535.91
2023-05-20T00:17:14.155Z,100527.25
2023-05-20T00:22:16.820Z,100536.75
2023-05-20T00:27:19.621Z,100539.41
2023-05-20T00:32:22.345Z,100541.13
2023-05-20T00:37:25.420Z,100540.25
2023-05-20T00:42:29.179Z,100527.38
2023-05-20T00:47:34.515Z,100542.88
2023-05-20T00:52:37.784Z,100539.38
2023-05-20T00:57:41.029Z,100540.31
2023-05-20T01:02:44.092Z,100535.97
2023-05-20T01:07:47.149Z,100535.97
2023-05-20T01:12:54.846Z,100541.16
2023-05-20T01:18:06.281Z,100535.06
2023-05-20T01:23:09.197Z,100542.81
2023-05-20T01:28:18.155Z,100548.91
2023-05-20T01:33:24.616Z,100550.63
2023-05-20T01:38:27.587Z,100543.72
2023-05-20T01:43:30.821Z,100548.91
2023-05-20T01:48:33.645Z,100557.50
2023-05-20T01:53:36.528Z,100560.94
2023-05-20T01:58:39.411Z,100562.69
2023-05-20T02:03:42.273Z,100554.03
2023-05-20T02:08:44.979Z,100554.91
2023-05-20T02:13:47.946Z,100558.41
2023-05-20T02:18:53.249Z,100557.53
2023-05-20T02:23:56.146Z,100555.84
2023-05-20T02:28:58.947Z,100536.00
2023-05-20T02:34:01.846Z,100544.66
2023-05-20T02:39:04.687Z,100549.91
2023-05-20T02:44:07.498Z,100556.81
2023-05-20T02:49:10.394Z,100552.50
2023-05-20T02:54:13.120Z,100545.59
2023-05-20T02:59:16.214Z,100554.25
2023-05-20T03:04:19.425Z,100553.38
2023-05-20T03:09:22.161Z,100549.06
2023-05-20T03:14:24.947Z,100539.59
2023-05-20T03:19:27.759Z,100553.44
2023-05-20T03:24:30.628Z,100544.84
2023-05-20T03:29:33.781Z,100550.91
2023-05-20T03:34:37.019Z,100561.28
2023-05-20T03:39:41.514Z,100562.16
2023-05-20T03:44:44.622Z,100557.75
2023-05-20T03:49:47.462Z,100556.03
2023-05-20T03:54:50.319Z,100552.63
2023-05-20T03:59:53.104Z,100553.53
2023-05-20T04:04:57.890Z,100551.81
2023-05-20T04:10:00.908Z,100538.88
2023-05-20T04:15:07.318Z,100555.34
2023-05-20T04:20:22.157Z,100555.34
2023-05-20T04:25:27.609Z,100549.31
2023-05-20T04:30:33.616Z,100544.09
2023-05-20T04:35:38.372Z,100538.06
2023-05-20T04:40:42.475Z,100559.66
2023-05-20T04:45:45.997Z,100548.44
2023-05-20T04:50:50.281Z,100548.34
2023-05-20T04:55:57.189Z,100566.44
2023-05-20T05:01:01.642Z,100556.91
2023-05-20T05:06:04.826Z,100563.78
2023-05-20T05:11:08.009Z,100552.47
2023-05-20T05:16:10.969Z,100548.03
2023-05-20T05:21:13.953Z,100552.09
2023-05-20T05:26:17.751Z,100550.31
2023-05-20T05:31:20.936Z,100526.03
2023-05-20T05:36:26.103Z,100526.56
2023-05-20T05:41:29.044Z,100530.53
2023-05-20T05:46:33.830Z,100532.06
2023-05-20T05:51:38.779Z,100535.00
2023-05-20T05:56:42.192Z,100525.44
2023-05-20T06:01:45.113Z,100532.88
2023-05-20T06:06:48.638Z,100535.78
2023-05-20T06:11:52.232Z,100530.41
2023-05-20T06:16:55.034Z,100522.69
2023-05-20T06:22:00.846Z,100530.22
2023-05-20T06:27:04.310Z,100534.78
2023-05-20T06:32:07.476Z,100511.13
2023-05-20T06:37:11.542Z,100512.69
2023-05-20T06:42:14.331Z,100524.16
2023-05-20T06:47:23.599Z,100511.25
2023-05-20T06:52:28.076Z,100510.91
2023-05-20T06:57:31.570Z,100514.50
2023-05-20T07:02:34.695Z,100535.72
2023-05-20T07:07:37.673Z,100535.31
2023-05-20T07:12:40.600Z,100521.88
2023-05-20T07:17:43.485Z,100516.97
2023-05-20T07:22:47.877Z,100544.13
2023-05-20T07:27:56.937Z,100549.50
2023-05-20T07:32:59.760Z,100519.38
2023-05-20T07:38:03.011Z,100523.69
2023-05-20T07:43:07.844Z,100513.66
2023-05-20T07:48:11.158Z,100510.09
2023-05-20T07:53:14.156Z,100521.03
2023-05-20T07:58:17.080Z,100509.34
2023-05-20T08:03:22.567Z,100506.19
2023-05-20T08:08:34.842Z,100504.72
2023-05-20T08:13:44.155Z,100522.25
2023-05-20T08:18:48.019Z,100500.88
2023-05-20T08:23:56.118Z,100530.22
2023-05-20T08:28:59.021Z,100501.19
2023-05-20T08:34:01.900Z,100491.81
2023-05-20T08:39:04.810Z,100507.47
2023-05-20T08:44:10.752Z,100511.31
2023-05-20T08:49:14.984Z,100513.34
2023-05-20T08:54:20.591Z,100504.00
2023-05-20T08:59:23.595Z,100508.94
2023-05-20T09:04:26.250Z,100489.19
2023-05-20T09:09:30.336Z,100504.47
2023-05-20T09:14:33.009Z,100521.13
2023-05-20T09:19:35.985Z,100538.19
2023-05-20T09:24:38.783Z,100514.47
2023-05-20T09:29:41.770Z,100504.56
2023-05-20T09:34:47.681Z,100509.53
2023-05-20T09:40:00.556Z,100502.91
2023-05-20T09:45:04.576Z,100493.09
2023-05-20T09:50:09.417Z,100514.16
2023-05-20T09:55:12.244Z,100508.97
2023-05-20T10:00:17.806Z,100514.91
2023-05-20T10:05:24.438Z,100509.13
2023-05-20T10:10:46.190Z,100531.66
2023-05-20T10:16:02.057Z,100514.69
2023-05-20T10:21:16.722Z,100524.50
2023-05-20T10:26:20.084Z,100512.34
2023-05-20T10:31:23.732Z,100533.03
2023-05-20T10:36:32.029Z,100545.72
2023-05-20T10:41:35.015Z,100529.03
2023-05-20T10:46:54.004Z,100533.94
2023-05-20T10:52:00.866Z,100528.59
2023-05-20T10:57:10.552Z,100531.97
2023-05-20T11:02:16.174Z,100512.69
2023-05-20T11:07:26.752Z,100519.88
2023-05-20T11:12:29.590Z,100520.91
2023-05-20T11:17:32.349Z,100537.91
2023-05-20T11:22:35.105Z,100514.22
2023-05-20T11:27:41.484Z,100516.38
2023-05-20T11:33:04.621Z,100513.72
2023-05-20T11:38:10.570Z,100514.72
2023-05-20T11:43:15.723Z,100518.84
2023-05-20T11:48:19.971Z,100524.44
2023-05-20T11:53:24.461Z,100533.78
2023-05-20T11:58:29.830Z,100533.47
2023-05-20T12:03:33.169Z,100555.25
2023-05-20T12:08:36.475Z,100529.09
2023-05-20T12:13:40.370Z,100533.47
2023-05-20T12:18:43.173Z,100548.69
2023-05-20T12:23:46.059Z,100541.72
2023-05-20T12:28:48.769Z,100533.34
2023-05-20T12:33:51.585Z,100516.44
2023-05-20T12:38:54.459Z,100520.78
2023-05-20T12:43:57.466Z,100522.91
2023-05-20T12:49:00.261Z,100513.78
2023-05-20T12:54:02.977Z,100533.97
2023-05-20T12:59:05.955Z,100542.13
2023-05-20T13:04:09.165Z,100537.94
2023-05-20T13:09:12.714Z,100550.81
2023-05-20T13:14:16.956Z,100542.13
2023-05-20T13:19:23.415Z,100552.66
2023-05-20T13:24:26.216Z,100525.88
2023-05-20T13:29:29.256Z,100549.66
2023-05-20T13:34:32.127Z,100540.75
2023-05-20T13:39:34.919Z,100537.44
2023-05-20T13:44:37.679Z,100547.72
2023-05-20T13:49:40.389Z,100548.88
2023-05-20T13:54:44.828Z,100540.31
2023-05-20T13:59:47.627Z,100546.56
2023-05-20T14:04:50.403Z,100544.19
2023-05-20T14:09:53.191Z,100526.84
2023-05-20T14:14:56.558Z,100526.75
2023-05-20T14:20:00.799Z,100531.75
2023-05-20T14:25:04.159Z,100522.19
2023-05-20T14:30:07.686Z,100528.66
2023-05-20T14:35:10.567Z,100524.84
2023-05-20T14:40:13.678Z,100511.09
2023-05-20T14:45:16.551Z,100507.84
2023-05-20T14:50:19.257Z,100508.63
2023-05-20T14:55:21.911Z,100484.84
2023-05-20T15:00:24.827Z,100514.16
2023-05-20T15:05:27.548Z,100503.72
2023-05-20T15:10:30.271Z,100500.72
2023-05-20T15:15:33.909Z,100505.38
2023-05-20T15:20:36.856Z,100504.56
2023-05-20T15:25:39.542Z,100498.50
2023-05-20T15:30:42.221Z,100475.59
2023-05-20T15:35:45.128Z,100440.72
2023-05-20T15:40:50.511Z,100489.63
2023-05-20T15:45:54.348Z,100487.56
2023-05-20T15:50:57.155Z,100483.03
2023-05-20T15:56:00.154Z,100475.81
2023-05-20T16:01:02.876Z,100464.97
2023-05-20T16:06:05.729Z,100486.19
2023-05-20T16:11:08.616Z,100472.81
2023-05-20T16:16:13.665Z,100462.53
2023-05-20T16:21:16.675Z,100456.63
2023-05-20T16:26:19.625Z,100468.75
2023-05-20T16:31:22.426Z,100465.47
2023-05-20T16:36:26.065Z,100444.84
2023-05-20T16:41:28.855Z,100470.06
2023-05-20T16:46:31.600Z,100468.41
2023-05-20T16:51:34.409Z,100444.25
2023-05-20T16:56:37.254Z,100475.63
2023-05-20T17:01:40.160Z,100471.47
2023-05-20T17:06:42.905Z,100487.09
2023-05-20T17:11:45.615Z,100482.09
2023-05-20T17:16:48.295Z,100480.50
2023-05-20T17:21:51.133Z,100484.91
2023-05-20T17:26:53.770Z,100492.00
2023-05-20T17:31:56.650Z,100522.66
2023-05-20T17:36:59.418Z,100509.78
2023-05-20T17:42:03.033Z,100509.84
2023-05-20T17:47:05.746Z,100501.28
2023-05-20T17:52:08.536Z,100495.19
2023-05-20T17:57:11.298Z,100503.91
2023-05-20T18:02:14.104Z,100530.00
2023-05-20T18:07:17.887Z,100499.88
2023-05-20T18:12:20.687Z,100507.72
2023-05-20T18:17:23.458Z,100494.78
2023-05-20T18:22:27.173Z,100497.41
2023-05-20T18:27:29.867Z,100490.47
2023-05-20T18:32:32.614Z,100489.59
2023-05-20T18:37:35.717Z,100486.16
2023-05-20T18:42:38.563Z,100468.88
2023-05-20T18:47:41.815Z,100480.09
2023-05-20T18:52:44.575Z,100472.31
2023-05-20T18:57:47.528Z,100472.34
2023-05-20T19:02:50.265Z,100474.06
2023-05-20T19:07:53.060Z,100453.34
2023-05-20T19:12:56.242Z,100464.59
2023-05-20T19:17:59.109Z,100450.78
2023-05-20T19:23:02.027Z,100445.59
2023-05-20T19:28:05.075Z,100452.50
2023-05-20T19:33:07.815Z,100435.19
2023-05-20T19:38:10.917Z,100430.00
2023-05-20T19:43:13.684Z,100418.75
2023-05-20T19:48:16.866Z,100404.06
2023-05-20T19:53:21.027Z,100407.56
2023-05-20T19:58:23.837Z,100398.06
2023-05-20T20:03:26.578Z,100404.94
2023-05-20T20:08:29.271Z,100401.50
2023-05-20T20:13:31.931Z,100405.84
2023-05-20T20:18:35.332Z,100403.22
2023-05-20T20:23:38.094Z,100388.50
2023-05-20T20:28:40.779Z,100385.06
2023-05-20T20:33:44.097Z,100377.31
2023-05-20T20:38:47.276Z,100372.97
2023-05-20T20:43:50.705Z,100348.81
2023-05-20T20:48:54.389Z,100357.44
2023-05-20T20:53:57.171Z,100341.91
2023-05-20T20:59:00.421Z,100347.91
2023-05-20T21:04:04.618Z,100349.66
2023-05-20T21:09:07.572Z,100345.38
2023-05-20T21:14:10.868Z,100334.13
2023-05-20T21:19:13.456Z,100329.81
2023-05-20T21:24:16.099Z,100323.75
2023-05-20T21:29:18.657Z,100319.44
2023-05-20T21:34:21.268Z,100316.00
2023-05-20T21:39:23.830Z,100308.22
2023-05-20T21:44:26.616Z,100313.44
2023-05-20T21:49:29.258Z,100309.09
2023-05-20T21:54:31.828Z,100308.25
2023-05-20T21:59:34.425Z,100303.94
2023-05-20T22:04:37.403Z,100304.81
2023-05-20T22:09:40.005Z,100297.03
2023-05-20T22:14:42.629Z,100291.88
2023-05-20T22:19:45.278Z,100283.22
2023-05-20T22:24:47.859Z,100277.16
2023-05-20T22:29:50.990Z,100267.69
2023-05-20T22:34:53.799Z,100269.44
2023-05-20T22:39:56.781Z,100257.34
2023-05-20T22:44:59.585Z,100260.78
2023-05-20T22:50:03.264Z,100253.88
2023-05-20T22:55:09.084Z,100243.53
2023-05-20T23:00:14.215Z,100242.66
2023-05-20T23:05:17.407Z,100215.06
2023-05-20T23:10:20.464Z,100214.19
2023-05-20T23:15:24.427Z,100217.66
2023-05-20T23:20:29.676Z,100217.63
2023-05-20T23:25:32.619Z,100219.38
2023-05-20T23:30:36.220Z,100209.88
2023-05-20T23:35:38.941Z,100204.66
2023-05-20T23:40:41.601Z,100193.47
2023-05-20T23:45:44.294Z,100195.16
2023-05-20T23:50:47.015Z,100194.31
2023-05-20T23:55:49.831Z,100182.22
